createdAt,value
2022-09-28T00:02:10.085Z,10.12
2022-09-28T00:04:36.624Z,10.09
2022-09-28T00:07:02.712Z,10.11
2022-09-28T00:09:28.826Z,10.07
2022-09-28T00:11:56.300Z,10.01
2022-09-28T00:14:23.031Z,9.88
2022-09-28T00:16:49.191Z,9.84
2022-09-28T00:19:15.642Z,9.86
2022-09-28T00:21:42.216Z,9.75
2022-09-28T00:24:14.066Z,9.78
2022-09-28T00:26:42.257Z,9.83
2022-09-28T00:29:18.762Z,9.87
2022-09-28T00:31:46.193Z,9.77
2022-09-28T00:34:13.683Z,9.70
2022-09-28T00:36:44.968Z,9.66
2022-09-28T00:39:14.186Z,9.73
2022-09-28T00:41:41.913Z,9.72
2022-09-28T00:44:23.900Z,9.76
2022-09-28T00:47:16.368Z,9.74
2022-09-28T00:50:21.676Z,9.68
2022-09-28T00:53:11.324Z,9.70
2022-09-28T01:02:01.125Z,9.48
2022-09-28T01:04:33.030Z,9.46
2022-09-28T01:06:59.601Z,9.42
2022-09-28T01:09:30.386Z,9.38
2022-09-28T01:11:56.746Z,9.43
2022-09-28T01:14:24.983Z,9.42
2022-09-28T01:17:06.497Z,9.39
2022-09-28T01:20:19.991Z,9.44
2022-09-28T01:23:20.449Z,9.45
2022-09-28T01:26:13.677Z,9.55
2022-09-28T01:28:43.084Z,9.52
2022-09-28T01:31:12.585Z,9.59
2022-09-28T01:33:46.347Z,9.63
2022-09-28T01:36:37.518Z,9.71
2022-09-28T01:39:19.514Z,9.70
2022-09-28T01:41:50.671Z,9.72
2022-09-28T01:44:20.281Z,9.66
2022-09-28T01:46:49.069Z,9.76
2022-09-28T01:49:38.100Z,9.74
2022-09-28T01:52:13.454Z,9.69
2022-09-28T01:54:45.078Z,9.73
2022-09-28T01:57:16.934Z,9.67
2022-09-28T01:59:55.885Z,9.68
2022-09-28T02:02:31.815Z,9.66
2022-09-28T02:05:13.213Z,9.57
2022-09-28T02:08:06.013Z,9.55
2022-09-28T02:10:40.090Z,9.50
2022-09-28T02:13:20.194Z,9.52
2022-09-28T02:15:53.006Z,9.44
2022-09-28T02:18:19.695Z,9.35
2022-09-28T02:20:56.219Z,9.27
2022-09-28T02:23:25.858Z,9.28
2022-09-28T02:26:00.729Z,9.23
2022-09-28T02:28:27.183Z,9.25
2022-09-28T02:30:54.332Z,9.27
2022-09-28T02:33:27.526Z,9.19
2022-09-28T02:35:54.178Z,9.20
2022-09-28T02:38:22.169Z,9.13
2022-09-28T02:41:10.502Z,9.16
2022-09-28T02:43:52.249Z,9.16
2022-09-28T02:46:34.010Z,9.21
2022-09-28T02:49:41.174Z,9.20
2022-09-28T02:52:19.569Z,9.22
2022-09-28T02:55:10.708Z,9.23
2022-09-28T02:57:42.975Z,9.16
2022-09-28T03:00:18.084Z,9.23
2022-09-28T03:03:12.003Z,9.04
2022-09-28T03:05:38.348Z,8.98
2022-09-28T03:08:22.974Z,9.04
2022-09-28T03:11:02.129Z,8.98
2022-09-28T03:13:29.558Z,8.89
2022-09-28T03:16:10.781Z,8.88
2022-09-28T03:18:37.300Z,8.88
2022-09-28T03:21:05.153Z,8.84
2022-09-28T03:23:31.631Z,8.83
2022-09-28T03:25:57.774Z,8.70
2022-09-28T03:28:25.085Z,8.73
2022-09-28T03:30:51.875Z,8.72
2022-09-28T03:33:19.076Z,8.58
2022-09-28T03:35:47.341Z,8.55
2022-09-28T03:38:13.971Z,8.49
2022-09-28T03:40:40.612Z,8.39
2022-09-28T03:43:06.996Z,8.26
2022-09-28T03:45:33.231Z,8.32
2022-09-28T03:47:59.505Z,8.28
2022-09-28T03:50:25.995Z,8.26
2022-09-28T03:52:52.138Z,8.22
2022-09-28T03:55:18.380Z,8.24
2022-09-28T03:57:44.737Z,8.21
2022-09-28T04:00:12.132Z,8.20
2022-09-28T04:02:41.006Z,8.21
2022-09-28T04:05:08.597Z,8.14
2022-09-28T04:07:35.553Z,8.17
2022-09-28T04:10:01.902Z,8.24
2022-09-28T04:12:29.113Z,8.27
2022-09-28T04:14:55.416Z,8.30
2022-09-28T04:17:21.560Z,8.38
2022-09-28T04:19:48.171Z,8.38
2022-09-28T04:22:37.002Z,8.45
2022-09-28T04:25:04.047Z,8.50
2022-09-28T04:27:48.867Z,8.55
2022-09-28T04:30:15.671Z,8.57
2022-09-28T04:32:46.569Z,8.63
2022-09-28T04:35:14.040Z,8.68
2022-09-28T04:37:40.851Z,8.73
2022-09-28T04:40:07.671Z,8.78
2022-09-28T04:42:33.987Z,8.81
2022-09-28T04:45:01.439Z,8.84
2022-09-28T04:47:28.952Z,8.84
2022-09-28T04:50:10.731Z,8.88
2022-09-28T04:52:57.880Z,8.90
2022-09-28T04:55:24.249Z,8.96
2022-09-28T04:57:50.387Z,8.97
2022-09-28T05:00:16.528Z,9.03
2022-09-28T05:02:54.214Z,9.05
2022-09-28T05:05:47.367Z,9.14
2022-09-28T05:08:29.770Z,9.14
2022-09-28T05:10:58.700Z,9.17
2022-09-28T05:13:25.102Z,9.25
2022-09-28T05:15:58.065Z,9.22
2022-09-28T05:18:26.463Z,9.24
2022-09-28T05:21:01.522Z,9.34
2022-09-28T05:23:27.956Z,9.35
2022-09-28T05:25:56.136Z,9.43
2022-09-28T05:28:30.495Z,9.46
2022-09-28T05:31:28.404Z,9.50
2022-09-28T05:34:12.059Z,9.60
2022-09-28T05:36:39.823Z,9.61
2022-09-28T05:39:06.185Z,9.62
2022-09-28T05:41:32.573Z,9.83
2022-09-28T05:43:59.804Z,9.92
2022-09-28T05:46:26.031Z,10.01
2022-09-28T05:48:53.465Z,10.11
2022-09-28T05:51:20.662Z,10.13
2022-09-28T05:53:46.802Z,10.11
2022-09-28T05:56:14.819Z,10.20
2022-09-28T05:58:43.712Z,10.21
2022-09-28T06:01:10.879Z,10.28
2022-09-28T06:03:37.394Z,10.35
2022-09-28T06:06:03.906Z,10.36
2022-09-28T06:08:32.226Z,10.35
2022-09-28T06:11:19.684Z,10.33
2022-09-28T06:13:46.563Z,10.38
2022-09-28T06:16:16.252Z,10.30
2022-09-28T06:18:42.608Z,10.53
2022-09-28T06:21:14.977Z,12.07
2022-09-28T06:23:48.818Z,12.26
2022-09-28T06:26:16.239Z,11.93
2022-09-28T06:28:43.956Z,12.04
2022-09-28T06:31:10.430Z,12.42
2022-09-28T06:33:43.855Z,12.41
2022-09-28T06:36:10.060Z,11.99
2022-09-28T06:38:37.612Z,11.66
2022-09-28T06:41:04.139Z,11.67
2022-09-28T06:43:34.486Z,11.62
2022-09-28T06:46:30.789Z,11.61
2022-09-28T06:49:19.304Z,11.63
2022-09-28T06:52:05.439Z,11.65
2022-09-28T06:54:54.755Z,11.66
2022-09-28T06:57:34.225Z,11.69
2022-09-28T07:00:00.540Z,11.68
2022-09-28T07:02:27.123Z,11.66
2022-09-28T07:05:03.107Z,11.71
2022-09-28T07:07:54.411Z,11.71
2022-09-28T07:10:44.101Z,11.76
2022-09-28T07:13:50.262Z,11.87
2022-09-28T07:16:14.314Z,11.92
2022-09-28T07:18:41.513Z,12.05
2022-09-28T07:21:08.099Z,12.15
2022-09-28T07:23:45.955Z,12.35
2022-09-28T07:26:23.536Z,12.76
2022-09-28T07:29:00.178Z,13.11
2022-09-28T07:31:53.198Z,13.35
2022-09-28T07:34:58.061Z,13.49
2022-09-28T07:37:37.136Z,13.54
2022-09-28T07:40:24.207Z,13.56
2022-09-28T07:42:50.804Z,13.60
2022-09-28T07:45:23.791Z,13.67
2022-09-28T07:47:54.803Z,13.53
2022-09-28T07:50:34.184Z,13.59
2022-09-28T07:53:10.670Z,13.63
2022-09-28T07:56:08.687Z,13.71
2022-09-28T07:58:42.952Z,13.78
2022-09-28T08:01:29.938Z,13.91
2022-09-28T08:03:57.647Z,13.98
2022-09-28T08:06:23.932Z,14.24
2022-09-28T08:08:51.935Z,14.34
2022-09-28T08:11:20.189Z,14.45
2022-09-28T08:14:12.800Z,14.59
2022-09-28T08:17:08.153Z,14.52
2022-09-28T08:19:59.451Z,14.59
2022-09-28T08:22:25.828Z,14.51
2022-09-28T08:24:55.192Z,14.41
2022-09-28T08:27:21.396Z,14.47
2022-09-28T08:29:47.486Z,14.44
2022-09-28T08:32:36.825Z,14.52
2022-09-28T08:35:29.165Z,14.32
2022-09-28T08:38:10.329Z,14.36
2022-09-28T08:41:20.783Z,14.47
2022-09-28T08:43:59.440Z,14.26
2022-09-28T08:46:49.377Z,14.16
2022-09-28T08:49:40.371Z,14.46
2022-09-28T08:52:22.835Z,14.64
2022-09-28T08:55:25.286Z,14.60
2022-09-28T08:57:57.336Z,14.65
2022-09-28T09:00:40.039Z,14.79
2022-09-28T09:03:12.763Z,14.88
2022-09-28T09:05:51.458Z,14.91
2022-09-28T09:08:51.884Z,14.89
2022-09-28T09:11:28.962Z,14.97
2022-09-28T09:14:16.198Z,15.13
2022-09-28T09:17:00.543Z,14.74
2022-09-28T09:19:45.685Z,14.87
2022-09-28T09:22:33.606Z,14.89
2022-09-28T09:25:22.373Z,14.84
2022-09-28T09:27:54.096Z,14.60
2022-09-28T09:30:28.718Z,14.62
2022-09-28T09:33:37.306Z,14.76
2022-09-28T09:36:27.383Z,14.91
2022-09-28T09:40:10.640Z,14.82
2022-09-28T09:43:07.607Z,14.64
2022-09-28T09:46:00.841Z,14.92
2022-09-28T09:48:53.332Z,15.07
2022-09-28T09:51:45.121Z,15.11
2022-09-28T09:54:45.865Z,15.04
2022-09-28T09:57:29.935Z,15.25
2022-09-28T10:00:03.527Z,15.52
2022-09-28T10:02:44.528Z,15.49
2022-09-28T10:05:28.985Z,15.48
2022-09-28T10:08:07.755Z,15.55
2022-09-28T10:10:38.310Z,15.81
2022-09-28T10:13:10.540Z,16.12
2022-09-28T10:15:40.813Z,16.38
2022-09-28T10:18:15.153Z,16.19
2022-09-28T10:20:59.615Z,16.09
2022-09-28T10:23:57.935Z,16.20
2022-09-28T10:26:33.735Z,16.35
2022-09-28T10:29:04.993Z,16.35
2022-09-28T10:31:38.065Z,16.85
2022-09-28T10:34:16.328Z,17.07
2022-09-28T10:37:00.632Z,16.94
2022-09-28T10:39:36.870Z,16.78
2022-09-28T10:42:08.997Z,16.90
2022-09-28T10:44:50.523Z,16.94
2022-09-28T10:47:35.310Z,16.74
2022-09-28T10:50:20.418Z,16.62
2022-09-28T10:52:47.186Z,16.79
2022-09-28T10:55:36.146Z,16.73
2022-09-28T10:58:36.280Z,17.07
2022-09-28T11:01:17.929Z,16.97
2022-09-28T11:03:56.176Z,16.88
2022-09-28T11:06:37.291Z,16.65
2022-09-28T11:09:21.817Z,16.80
2022-09-28T11:11:48.352Z,16.77
2022-09-28T11:14:38.265Z,16.92
2022-09-28T11:17:32.161Z,16.61
2022-09-28T11:20:27.384Z,16.71
2022-09-28T11:23:17.309Z,16.61
2022-09-28T11:25:56.109Z,16.68
2022-09-28T11:28:26.967Z,16.86
2022-09-28T11:30:53.838Z,17.01
2022-09-28T11:33:42.364Z,16.94
2022-09-28T11:37:03.943Z,16.93
2022-09-28T11:39:56.708Z,16.93
2022-09-28T11:42:29.614Z,16.90
2022-09-28T11:45:25.292Z,16.94
2022-09-28T11:48:02.989Z,16.83
2022-09-28T11:50:47.832Z,16.73
2022-09-28T11:53:25.883Z,16.55
2022-09-28T11:56:33.140Z,16.65
2022-09-28T11:59:19.919Z,16.55
2022-09-28T12:01:57.001Z,16.58
2022-09-28T12:04:40.151Z,16.59
2022-09-28T12:07:22.627Z,16.46
2022-09-28T12:09:59.576Z,16.30
2022-09-28T12:12:46.936Z,16.15
2022-09-28T12:15:20.873Z,15.91
2022-09-28T12:18:13.607Z,15.78
2022-09-28T12:20:46.671Z,15.63
2022-09-28T12:23:18.718Z,15.64
2022-09-28T12:26:26.162Z,15.70
2022-09-28T12:28:58.026Z,15.68
2022-09-28T12:31:33.627Z,15.72
2022-09-28T12:34:01.452Z,15.69
2022-09-28T12:36:43.027Z,15.75
2022-09-28T12:39:24.041Z,15.64
2022-09-28T12:42:28.005Z,15.42
2022-09-28T12:45:22.870Z,15.47
2022-09-28T12:48:27.479Z,15.37
2022-09-28T12:51:15.095Z,15.29
2022-09-28T12:54:04.928Z,15.30
2022-09-28T12:56:45.039Z,15.31
2022-09-28T12:59:21.488Z,15.19
2022-09-28T13:01:57.128Z,15.11
2022-09-28T13:04:29.184Z,15.09
2022-09-28T13:07:02.757Z,14.94
2022-09-28T13:09:40.985Z,14.64
2022-09-28T13:12:29.857Z,14.17
2022-09-28T13:15:22.839Z,13.95
2022-09-28T13:18:02.922Z,13.90
2022-09-28T13:20:49.492Z,13.89
2022-09-28T13:23:23.679Z,13.88
2022-09-28T13:25:49.991Z,13.99
2022-09-28T13:28:21.330Z,13.99
2022-09-28T13:30:52.402Z,13.68
2022-09-28T13:33:40.755Z,13.52
2022-09-28T13:36:29.747Z,13.48
2022-09-28T13:39:00.837Z,13.58
2022-09-28T13:41:31.702Z,13.55
2022-09-28T13:44:07.208Z,13.52
2022-09-28T13:46:44.418Z,13.59
2022-09-28T13:49:17.247Z,13.65
2022-09-28T13:52:06.663Z,13.60
2022-09-28T13:54:58.397Z,13.48
2022-09-28T13:57:43.967Z,13.36
2022-09-28T14:00:10.587Z,13.36
2022-09-28T14:02:42.844Z,13.27
2022-09-28T14:05:48.310Z,13.16
2022-09-28T14:08:34.653Z,13.26
2022-09-28T14:11:24.019Z,13.22
2022-09-28T14:13:57.924Z,13.20
2022-09-28T14:16:30.434Z,13.18
2022-09-28T14:19:23.586Z,13.19
2022-09-28T14:22:15.332Z,13.22
2022-09-28T14:25:29.647Z,13.23
2022-09-28T14:28:22.568Z,13.15
2022-09-28T14:30:54.630Z,13.18
2022-09-28T14:33:21.173Z,13.20
2022-09-28T14:35:56.250Z,13.30
2022-09-28T14:38:47.774Z,13.33
2022-09-28T14:41:35.665Z,13.10
2022-09-28T14:44:10.841Z,13.07
2022-09-28T14:46:39.665Z,13.12
2022-09-28T14:49:23.409Z,13.06
2022-09-28T14:51:52.565Z,12.90
2022-09-28T14:54:24.186Z,13.05
2022-09-28T14:56:53.465Z,13.13
2022-09-28T14:59:26.162Z,13.05
2022-09-28T15:02:07.895Z,13.02
2022-09-28T15:04:39.418Z,13.11
2022-09-28T15:07:05.706Z,13.06
2022-09-28T15:09:35.819Z,13.15
2022-09-28T15:12:14.395Z,13.13
2022-09-28T15:15:02.147Z,13.04
2022-09-28T15:17:38.544Z,13.02
2022-09-28T15:20:11.843Z,13.03
2022-09-28T15:22:45.051Z,12.98
2022-09-28T15:25:19.282Z,12.89
2022-09-28T15:27:51.889Z,12.86
2022-09-28T15:30:31.104Z,12.90
2022-09-28T15:33:19.831Z,12.88
2022-09-28T15:36:01.065Z,12.85
2022-09-28T15:38:29.283Z,12.87
2022-09-28T15:40:56.692Z,12.93
2022-09-28T15:43:32.498Z,12.87
2022-09-28T15:46:17.632Z,12.82
2022-09-28T15:48:52.712Z,12.94
2022-09-28T15:51:21.403Z,12.90
2022-09-28T15:53:55.446Z,12.85
2022-09-28T15:56:22.252Z,12.94
2022-09-28T15:59:14.252Z,13.06
2022-09-28T16:01:42.857Z,13.20
2022-09-28T16:04:39.279Z,13.22
2022-09-28T16:07:10.151Z,13.21
2022-09-28T16:09:54.035Z,13.08
2022-09-28T16:12:21.561Z,13.01
2022-09-28T16:14:52.921Z,12.94
2022-09-28T16:17:34.325Z,12.96
2022-09-28T16:20:24.507Z,12.92
2022-09-28T16:22:53.015Z,12.88
2022-09-28T16:25:24.222Z,12.86
2022-09-28T16:27:52.676Z,12.79
2022-09-28T16:30:31.815Z,12.77
2022-09-28T16:33:04.475Z,12.74
2022-09-28T16:35:39.993Z,12.74
2022-09-28T16:38:14.952Z,12.73
2022-09-28T16:40:45.633Z,12.70
2022-09-28T16:43:26.277Z,12.67
2022-09-28T16:45:59.574Z,12.63
2022-09-28T16:48:28.407Z,12.63
2022-09-28T16:50:56.263Z,12.62
2022-09-28T16:53:41.706Z,12.58
2022-09-28T16:56:09.396Z,12.56
2022-09-28T16:58:38.294Z,12.52
2022-09-28T17:01:08.698Z,12.52
2022-09-28T17:03:35.520Z,12.48
2022-09-28T17:06:07.716Z,12.40
2022-09-28T17:08:34.921Z,12.34
2022-09-28T17:11:14.851Z,12.21
2022-09-28T17:13:45.261Z,12.24
2022-09-28T17:16:13.380Z,12.26
2022-09-28T17:18:40.310Z,12.20
2022-09-28T17:21:17.813Z,12.19
2022-09-28T17:23:46.501Z,12.19
2022-09-28T17:26:26.595Z,12.07
2022-09-28T17:28:53.821Z,12.04
2022-09-28T17:31:20.086Z,12.06
2022-09-28T17:33:47.421Z,12.08
2022-09-28T17:36:16.908Z,12.01
2022-09-28T17:38:44.085Z,11.99
2022-09-28T17:41:20.476Z,11.94
2022-09-28T17:43:48.753Z,11.99
2022-09-28T17:46:27.362Z,12.08
2022-09-28T17:48:56.949Z,12.11
2022-09-28T17:51:23.178Z,12.16
2022-09-28T17:53:49.367Z,12.19
2022-09-28T17:56:15.802Z,12.21
2022-09-28T17:58:42.004Z,12.16
2022-09-28T18:01:08.659Z,12.16
2022-09-28T18:03:35.261Z,12.17
2022-09-28T18:06:05.875Z,12.09
2022-09-28T18:08:33.586Z,12.08
2022-09-28T18:11:01.008Z,12.11
2022-09-28T18:13:27.866Z,12.08
2022-09-28T18:15:55.306Z,12.03
2022-09-28T18:18:23.638Z,12.01
2022-09-28T18:20:50.312Z,11.95
2022-09-28T18:23:17.477Z,11.91
2022-09-28T18:25:45.205Z,11.95
2022-09-28T18:28:12.658Z,11.96
2022-09-28T18:30:41.487Z,11.90
2022-09-28T18:33:08.488Z,11.87
2022-09-28T18:35:35.581Z,11.95
2022-09-28T18:38:06.174Z,11.94
2022-09-28T18:40:34.332Z,11.89
2022-09-28T18:43:01.659Z,11.92
2022-09-28T18:45:28.858Z,11.90
2022-09-28T18:47:55.404Z,11.93
2022-09-28T18:50:21.656Z,11.99
2022-09-28T18:52:48.038Z,12.05
2022-09-28T18:55:15.344Z,12.09
2022-09-28T18:57:43.480Z,12.03
2022-09-28T19:00:12.006Z,11.98
2022-09-28T19:02:38.795Z,11.91
2022-09-28T19:05:06.110Z,11.89
2022-09-28T19:07:33.183Z,11.94
2022-09-28T19:10:00.234Z,11.81
2022-09-28T19:12:26.507Z,11.81
2022-09-28T19:14:52.991Z,11.70
2022-09-28T19:17:19.541Z,11.65
2022-09-28T19:19:45.835Z,11.63
2022-09-28T19:22:12.141Z,11.68
2022-09-28T19:24:38.781Z,11.50
2022-09-28T19:27:05.032Z,11.51
2022-09-28T19:29:31.351Z,11.47
2022-09-28T19:31:57.960Z,11.43
2022-09-28T19:34:26.409Z,11.40
2022-09-28T19:36:52.861Z,11.45
2022-09-28T19:39:19.589Z,11.49
2022-09-28T19:41:50.542Z,11.44
2022-09-28T19:44:23.787Z,11.44
2022-09-28T19:46:57.452Z,11.60
2022-09-28T19:49:28.143Z,11.72
2022-09-28T19:52:12.237Z,11.79
2022-09-28T19:54:43.068Z,11.86
2022-09-28T19:57:10.823Z,11.92
2022-09-28T19:59:40.556Z,11.91
2022-09-28T20:02:09.440Z,11.96
2022-09-28T20:04:36.074Z,11.96
2022-09-28T20:07:03.767Z,11.95
2022-09-28T20:09:32.293Z,12.03
2022-09-28T20:11:58.929Z,12.06
2022-09-28T20:14:26.011Z,12.08
2022-09-28T20:16:54.776Z,12.04
2022-09-28T20:19:22.484Z,12.10
2022-09-28T20:21:49.395Z,12.10
2022-09-28T20:24:16.540Z,12.07
2022-09-28T20:26:43.992Z,12.09
2022-09-28T20:29:10.820Z,12.06
2022-09-28T20:31:37.370Z,12.05
2022-09-28T20:34:05.039Z,12.02
2022-09-28T20:36:33.576Z,12.01
2022-09-28T20:39:01.375Z,12.00
2022-09-28T20:41:34.795Z,12.00
2022-09-28T20:44:05.625Z,11.90
2022-09-28T20:46:35.835Z,11.53
2022-09-28T20:49:04.035Z,11.70
2022-09-28T20:51:31.619Z,11.77
2022-09-28T20:53:58.929Z,11.76
2022-09-28T20:56:27.637Z,11.81
2022-09-28T20:58:54.325Z,11.86
2022-09-28T21:01:26.578Z,11.87
2022-09-28T21:03:55.385Z,11.92
2022-09-28T21:06:24.609Z,11.98
2022-09-28T21:08:51.058Z,11.95
2022-09-28T21:11:19.975Z,11.94
2022-09-28T21:13:50.825Z,11.96
2022-09-28T21:16:17.350Z,11.98
2022-09-28T21:18:43.955Z,12.01
2022-09-28T21:21:16.073Z,12.04
2022-09-28T21:23:45.040Z,12.02
2022-09-28T21:26:23.819Z,11.98
2022-09-28T21:28:54.920Z,11.99
2022-09-28T21:31:27.750Z,11.94
2022-09-28T21:33:54.865Z,11.91
2022-09-28T21:36:20.973Z,11.90
2022-09-28T21:38:47.302Z,11.83
2022-09-28T21:41:13.401Z,11.83
2022-09-28T21:43:39.650Z,11.84
2022-09-28T21:46:06.435Z,11.82
2022-09-28T21:48:32.690Z,11.77
2022-09-28T21:51:04.102Z,11.72
2022-09-28T21:53:35.331Z,11.69
2022-09-28T21:56:04.590Z,11.69
2022-09-28T21:58:32.811Z,11.69
2022-09-28T22:01:07.697Z,11.69
2022-09-28T22:03:35.513Z,11.64
2022-09-28T22:06:03.446Z,11.54
2022-09-28T22:08:30.328Z,11.52
2022-09-28T22:11:01.904Z,11.51
2022-09-28T22:13:30.629Z,11.57
2022-09-28T22:15:58.997Z,11.57
2022-09-28T22:18:30.396Z,11.55
2022-09-28T22:21:07.035Z,11.55
2022-09-28T22:23:34.054Z,11.56
2022-09-28T22:26:05.023Z,11.55
2022-09-28T22:28:31.183Z,11.53
2022-09-28T22:30:57.418Z,11.53
2022-09-28T22:33:24.205Z,11.58
2022-09-28T22:35:50.607Z,11.57
2022-09-28T22:38:21.935Z,11.56
2022-09-28T22:40:53.797Z,11.52
2022-09-28T22:43:21.910Z,11.54
2022-09-28T22:45:48.761Z,11.55
2022-09-28T22:48:15.312Z,11.57
2022-09-28T22:50:51.806Z,11.63
2022-09-28T22:53:18.583Z,11.58
2022-09-28T22:55:44.694Z,11.56
2022-09-28T22:58:11.143Z,11.61
2022-09-28T23:00:37.580Z,11.65
2022-09-28T23:03:04.086Z,11.52
2022-09-28T23:05:30.840Z,11.60
2022-09-28T23:07:57.157Z,11.60
2022-09-28T23:10:23.611Z,11.56
2022-09-28T23:12:52.650Z,11.54
2022-09-28T23:15:19.429Z,11.51
2022-09-28T23:17:49.494Z,11.57
2022-09-28T23:20:15.617Z,11.54
2022-09-28T23:22:45.523Z,11.50
2022-09-28T23:25:11.675Z,11.50
2022-09-28T23:27:37.786Z,11.46
2022-09-28T23:30:04.511Z,11.46
2022-09-28T23:32:32.115Z,11.46
2022-09-28T23:34:58.632Z,11.49
2022-09-28T23:37:25.088Z,11.51
2022-09-28T23:39:51.219Z,11.51
2022-09-28T23:42:17.446Z,11.54
2022-09-28T23:44:43.794Z,11.52
2022-09-28T23:47:09.898Z,11.52
2022-09-28T23:49:36.198Z,11.55
2022-09-28T23:52:02.511Z,11.54
2022-09-28T23:54:28.644Z,11.56
2022-09-28T23:56:54.838Z,11.65
2022-09-28T23:59:21.082Z,11.63
